Time;durP1;ratioP1;P1;durP2;ratioP2;P2;SDS_P1;SDS_P2;PMS_P1;PMS_P2;Temp;Humidity;BMP_temperature;BMP_pressure;BME280_temperature;BME280_humidity;BME280_pressure;Samples;Min_cycle;Max_cycle;Signal;HPM_P1;HPM_P2
2023/07/27 00:01:56;;;;;;;1.63;0.70;;;;;;;26.24;47.72;99434.38;4880630;29;20116;-76
2023/07/27 00:04:22;;;;;;;2.40;0.93;;;;;;;26.25;47.63;99440.56;4889226;29;20035;-76
2023/07/27 00:06:48;;;;;;;1.73;0.90;;;;;;;26.24;47.44;99436.22;4898666;29;20048;-76
2023/07/27 00:09:15;;;;;;;1.35;0.77;;;;;;;26.22;47.55;99438.97;4890476;29;20072;-76
2023/07/27 00:11:40;;;;;;;1.60;0.90;;;;;;;26.22;47.53;99425.59;4889397;29;20088;-76
2023/07/27 00:14:05;;;;;;;0.80;0.70;;;;;;;26.21;47.40;99429.25;4898574;29;20032;-76
2023/07/27 00:16:31;;;;;;;2.30;0.90;;;;;;;26.20;47.53;99430.22;4898965;29;20032;-76
2023/07/27 00:18:56;;;;;;;1.30;0.70;;;;;;;26.18;47.67;99426.81;4898861;29;20021;-76
2023/07/27 00:21:22;;;;;;;1.25;0.70;;;;;;;26.19;47.31;99423.16;4898528;29;20029;-76
2023/07/27 00:23:47;;;;;;;1.48;0.73;;;;;;;26.19;47.30;99420.50;4898767;29;20033;-76
2023/07/27 00:26:13;;;;;;;1.58;0.90;;;;;;;26.20;47.34;99419.50;4898811;29;20103;-77
2023/07/27 00:28:38;;;;;;;1.30;0.80;;;;;;;26.20;47.67;99422.19;4896785;29;20039;-76
2023/07/27 00:31:04;;;;;;;0.90;0.70;;;;;;;26.19;47.28;99423.16;4880042;29;20029;-76
2023/07/27 00:33:29;;;;;;;2.08;1.00;;;;;;;26.20;47.53;99419.50;4898079;29;20039;-76
2023/07/27 00:35:56;;;;;;;1.38;0.82;;;;;;;26.20;47.47;99419.50;4898851;29;20502;-76
2023/07/27 00:38:21;;;;;;;2.08;0.98;;;;;;;26.19;47.44;99414.31;4898209;29;20039;-76
2023/07/27 00:40:47;;;;;;;1.10;0.77;;;;;;;26.18;47.29;99413.47;4894541;29;20029;-76
2023/07/27 00:43:12;;;;;;;1.67;0.98;;;;;;;26.14;47.65;99409.34;4898428;29;20509;-76
2023/07/27 00:45:38;;;;;;;1.67;1.08;;;;;;;26.11;47.83;99406.94;4898512;29;20116;-77
2023/07/27 00:48:04;;;;;;;1.60;0.80;;;;;;;26.12;47.70;99411.31;4898521;29;20090;-76
2023/07/27 00:50:34;;;;;;;1.48;0.95;;;;;;;26.10;47.72;99405.25;4898158;29;20097;-76
2023/07/27 00:53:00;;;;;;;1.58;0.80;;;;;;;26.10;47.35;99399.91;4897819;29;20120;-76
2023/07/27 00:55:25;;;;;;;2.30;1.10;;;;;;;26.08;47.60;99396.47;4885491;29;20599;-76
2023/07/27 00:57:51;;;;;;;2.35;0.90;;;;;;;26.05;47.80;99396.75;4897779;29;20040;-77
2023/07/27 01:00:17;;;;;;;1.60;0.90;;;;;;;26.05;47.28;99399.44;4898034;29;20037;-77
2023/07/27 01:02:42;;;;;;;1.40;0.90;;;;;;;26.06;47.74;99393.09;4896804;29;20032;-76
2023/07/27 01:05:08;;;;;;;1.77;0.98;;;;;;;26.05;47.56;99394.09;4898158;29;20033;-76
2023/07/27 01:07:33;;;;;;;1.55;0.85;;;;;;;26.04;47.74;99392.41;4893405;29;20049;-76
2023/07/27 01:09:59;;;;;;;1.30;0.95;;;;;;;26.03;47.75;99386.19;4886507;29;20096;-76
2023/07/27 01:12:34;;;;;;;1.63;1.08;;;;;;;26.05;47.30;99388.75;4896991;29;20032;-76
2023/07/27 01:15:09;;;;;;;1.48;1.10;;;;;;;26.04;47.69;99393.22;4897427;29;20028;-76
2023/07/27 01:18:04;;;;;;;1.60;0.80;;;;;;;26.03;47.46;99380.84;4887517;29;20071;-76
2023/07/27 01:20:57;;;;;;;1.67;1.00;;;;;;;26.01;47.69;99383.63;4891465;29;20037;-76
2023/07/27 01:23:45;;;;;;;1.70;0.90;;;;;;;26.00;47.57;99378.41;4895855;29;20059;-77
2023/07/27 01:26:39;;;;;;;1.13;0.80;;;;;;;25.99;47.67;99385.59;4897658;29;20024;-76
2023/07/27 01:29:33;;;;;;;1.42;0.82;;;;;;;25.99;47.72;99380.25;4897696;29;20485;-75
2023/07/27 01:32:00;;;;;;;1.33;0.70;;;;;;;25.99;47.34;99380.25;4897745;29;20032;-76
2023/07/27 01:34:32;;;;;;;2.13;1.08;;;;;;;25.99;47.27;99382.06;4897727;29;20029;-76
2023/07/27 01:37:05;;;;;;;1.38;0.90;;;;;;;25.98;47.78;99373.22;4897035;29;20132;-77
2023/07/27 01:39:35;;;;;;;1.42;0.90;;;;;;;25.96;47.63;99374.31;4893167;29;20104;-76
2023/07/27 01:42:02;;;;;;;1.70;1.00;;;;;;;25.91;47.66;99369.34;4893715;29;20039;-76
2023/07/27 01:44:31;;;;;;;1.63;0.85;;;;;;;25.90;47.41;99364.97;4897432;29;20040;-76
2023/07/27 01:46:58;;;;;;;2.58;1.10;;;;;;;25.86;47.87;99363.56;4897341;29;20036;-76
2023/07/27 01:49:24;;;;;;;1.50;1.00;;;;;;;25.87;47.49;99357.22;4897363;29;20029;-75
2023/07/27 01:51:50;;;;;;;1.23;0.80;;;;;;;25.86;47.74;99345.66;4897509;29;20025;-76
2023/07/27 01:54:16;;;;;;;1.70;0.85;;;;;;;25.90;47.84;99348.09;4897155;29;20115;-76
2023/07/27 01:56:44;;;;;;;2.10;0.90;;;;;;;25.87;47.55;99339.34;4878319;29;20033;-76
2023/07/27 01:59:10;;;;;;;1.85;1.00;;;;;;;25.85;47.67;99335.97;4881754;29;20054;-76
2023/07/27 02:01:42;;;;;;;1.40;1.00;;;;;;;25.82;47.87;99344.22;4897058;29;20032;-77
2023/07/27 02:04:08;;;;;;;1.33;0.90;;;;;;;25.84;47.61;99350.31;4897227;29;20081;-76
2023/07/27 02:06:34;;;;;;;1.20;0.90;;;;;;;25.85;47.85;99335.09;4895777;29;20020;-77
2023/07/27 02:08:59;;;;;;;1.92;1.00;;;;;;;25.85;47.78;99340.44;4895846;29;20132;-76
2023/07/27 02:11:26;;;;;;;1.83;1.10;;;;;;;25.83;47.80;99329.91;4888735;29;20038;-76
2023/07/27 02:13:54;;;;;;;1.80;1.10;;;;;;;25.85;47.50;99335.97;4879793;29;20133;-77
2023/07/27 02:16:45;;;;;;;1.52;1.00;;;;;;;25.86;47.50;99336.81;4896753;29;20038;-76
2023/07/27 02:19:16;;;;;;;1.95;1.05;;;;;;;25.85;47.79;99335.09;4896923;29;20035;-76
2023/07/27 02:21:46;;;;;;;1.95;1.00;;;;;;;25.85;47.37;99340.44;4896735;29;20524;-76
2023/07/27 02:24:13;;;;;;;2.15;0.90;;;;;;;25.85;47.35;99341.31;4880279;29;20036;-76
2023/07/27 02:26:38;;;;;;;1.45;0.88;;;;;;;25.84;47.38;99334.28;4896652;29;20032;-77
2023/07/27 02:29:03;;;;;;;2.40;1.10;;;;;;;25.83;47.50;99337.06;4896916;29;20036;-76
2023/07/27 02:31:29;;;;;;;1.38;0.95;;;;;;;25.80;47.51;99323.97;4896774;29;20053;-76
2023/07/27 02:33:54;;;;;;;1.67;1.13;;;;;;;25.78;47.84;99324.09;4896841;29;20029;-76
2023/07/27 02:36:20;;;;;;;1.40;0.93;;;;;;;25.79;47.52;99331.13;4896932;29;20028;-76
2023/07/27 02:38:45;;;;;;;1.17;0.80;;;;;;;25.80;47.43;99323.97;4896905;29;20068;-76
2023/07/27 02:41:11;;;;;;;1.42;0.80;;;;;;;25.80;47.37;99322.13;4896337;29;20506;-76
2023/07/27 02:43:37;;;;;;;1.27;0.95;;;;;;;25.81;47.64;99323.81;4896790;29;20029;-76
2023/07/27 02:46:04;;;;;;;1.95;1.30;;;;;;;25.80;47.50;99326.66;4896574;29;20028;-76
2023/07/27 02:48:29;;;;;;;1.35;0.90;;;;;;;25.78;47.67;99320.56;4894711;29;20028;-77
2023/07/27 02:50:55;;;;;;;1.85;1.10;;;;;;;25.80;47.39;99318.63;4878031;29;20029;-76
2023/07/27 02:53:21;;;;;;;2.58;1.15;;;;;;;25.77;47.45;99316.19;4893802;29;20027;-77
2023/07/27 02:56:01;;;;;;;1.98;0.90;;;;;;;25.77;47.41;99316.19;4896564;29;20112;-77
2023/07/27 02:58:27;;;;;;;0.95;0.77;;;;;;;25.79;47.63;99316.91;4896772;29;20029;-76
2023/07/27 03:00:54;;;;;;;1.23;0.90;;;;;;;25.80;47.33;99318.63;4896240;29;20055;-77
2023/07/27 03:03:20;;;;;;;1.67;1.10;;;;;;;25.81;47.57;99317.66;4896818;29;20455;-76
2023/07/27 03:05:46;;;;;;;1.95;1.10;;;;;;;25.79;47.57;99320.44;4893646;29;20035;-77
2023/07/27 03:08:11;;;;;;;1.95;1.13;;;;;;;25.79;47.40;99311.56;4895349;29;20036;-77
2023/07/27 03:10:38;;;;;;;1.83;1.08;;;;;;;25.77;47.35;99311.72;4896541;29;20029;-76
2023/07/27 03:13:03;;;;;;;2.10;0.90;;;;;;;25.79;47.29;99306.22;4896272;29;20038;-76
2023/07/27 03:15:29;;;;;;;1.80;1.13;;;;;;;25.80;47.21;99310.63;4896269;29;20036;-76
2023/07/27 03:17:54;;;;;;;0.90;0.68;;;;;;;25.81;47.44;99314.97;4896111;29;20028;-76
2023/07/27 03:20:19;;;;;;;0.85;0.77;;;;;;;25.80;47.22;99316.78;4887539;29;20026;-76
2023/07/27 03:22:45;;;;;;;1.67;0.90;;;;;;;25.80;47.56;99323.97;4885338;29;20027;-76
2023/07/27 03:25:10;;;;;;;1.65;1.10;;;;;;;25.81;47.18;99317.66;4899843;29;20107;-76
2023/07/27 03:27:36;;;;;;;1.50;0.90;;;;;;;25.79;47.55;99314.22;4896948;29;20041;-77
2023/07/27 03:30:01;;;;;;;1.52;1.00;;;;;;;25.78;47.53;99317.88;4888710;29;20564;-76
2023/07/27 03:32:27;;;;;;;1.15;0.80;;;;;;;25.77;47.33;99316.19;4900032;29;20033;-75
2023/07/27 03:34:52;;;;;;;1.92;0.98;;;;;;;25.78;47.40;99313.41;4899761;29;20049;-77
2023/07/27 03:37:17;;;;;;;1.33;0.90;;;;;;;25.74;47.24;99312.81;4899418;29;20033;-75
2023/07/27 03:39:43;;;;;;;2.13;1.25;;;;;;;25.78;47.04;99317.88;4899554;29;20029;-76
2023/07/27 03:42:08;;;;;;;1.05;0.90;;;;;;;25.74;47.27;99323.50;4899560;29;20035;-76
2023/07/27 03:44:33;;;;;;;1.42;0.88;;;;;;;25.76;47.45;99319.84;4890311;29;20104;-76
2023/07/27 03:46:59;;;;;;;1.55;0.90;;;;;;;25.74;47.42;99326.19;4892006;29;20556;-76
2023/07/27 03:49:24;;;;;;;1.27;0.88;;;;;;;25.73;47.29;99319.13;4899382;29;20017;-76
2023/07/27 03:51:50;;;;;;;1.40;1.00;;;;;;;25.72;47.51;99325.44;4889827;29;20036;-76
2023/07/27 03:54:15;;;;;;;1.17;0.90;;;;;;;25.74;47.46;99312.81;4883541;29;20450;-77
2023/07/27 03:56:40;;;;;;;1.65;1.02;;;;;;;25.70;47.69;99311.38;4899117;29;20017;-75
2023/07/27 03:59:06;;;;;;;1.63;1.00;;;;;;;25.62;47.78;99311.19;4899332;29;20033;-76
2023/07/27 04:01:33;;;;;;;1.88;1.05;;;;;;;25.56;47.84;99314.34;4899437;29;20051;-77
2023/07/27 04:03:58;;;;;;;2.35;1.10;;;;;;;25.52;47.82;99318.22;4899229;29;20060;-76
2023/07/27 04:06:24;;;;;;;1.20;0.98;;;;;;;25.51;48.03;99317.34;4898891;29;20521;-76
2023/07/27 04:08:50;;;;;;;1.10;0.70;;;;;;;25.49;48.07;99319.31;4898924;29;20064;-75
2023/07/27 04:11:15;;;;;;;2.38;1.20;;;;;;;25.48;47.63;99312.28;4899027;29;20060;-77
2023/07/27 04:13:40;;;;;;;1.77;1.10;;;;;;;25.50;47.80;99317.47;4898555;29;20153;-75
2023/07/27 04:16:06;;;;;;;1.65;1.00;;;;;;;25.52;47.76;99320.88;4898940;29;20033;-77
2023/07/27 04:18:31;;;;;;;1.60;0.82;;;;;;;25.54;47.58;99316.28;4899037;29;20029;-77
2023/07/27 04:20:57;;;;;;;1.25;0.85;;;;;;;25.55;47.76;99307.28;4898348;29;20039;-76
2023/07/27 04:23:22;;;;;;;1.50;1.02;;;;;;;25.55;47.96;99308.16;4898929;29;20534;-76
2023/07/27 04:25:48;;;;;;;1.88;1.00;;;;;;;25.57;47.49;99302.69;4898601;29;20048;-76
2023/07/27 04:28:13;;;;;;;1.80;1.00;;;;;;;25.52;47.62;99302.19;4898806;29;20108;-76
2023/07/27 04:30:40;;;;;;;2.10;1.10;;;;;;;25.53;47.47;99301.22;4899006;29;20034;-76
2023/07/27 04:33:05;;;;;;;1.70;1.15;;;;;;;25.52;47.50;99299.53;4898397;29;20069;-76
2023/07/27 04:35:31;;;;;;;1.50;1.10;;;;;;;25.48;47.45;99302.44;4898047;29;20029;-77
2023/07/27 04:37:56;;;;;;;2.05;1.00;;;;;;;25.44;47.54;99303.69;4898452;29;20080;-76
2023/07/27 04:40:22;;;;;;;2.13;0.90;;;;;;;25.42;47.92;99305.59;4898580;29;20033;-77
2023/07/27 04:42:47;;;;;;;1.52;1.00;;;;;;;25.41;47.72;99306.59;4898408;29;20075;-76
2023/07/27 04:45:13;;;;;;;1.45;0.90;;;;;;;25.41;47.66;99309.25;4898483;29;20116;-77
2023/07/27 04:47:38;;;;;;;1.73;1.00;;;;;;;25.42;47.70;99297.59;4898332;29;20052;-76
2023/07/27 04:50:04;;;;;;;3.08;1.08;;;;;;;25.42;47.75;99299.44;4898131;29;20112;-77
2023/07/27 04:52:30;;;;;;;1.40;0.88;;;;;;;25.41;47.96;99295.91;4898017;29;20024;-77
2023/07/27 04:54:55;;;;;;;1.38;1.00;;;;;;;25.42;47.78;99302.94;4890641;29;20045;-75
2023/07/27 04:57:21;;;;;;;1.50;1.00;;;;;;;25.41;47.79;99290.56;4889881;29;20481;-76
2023/07/27 04:59:46;;;;;;;1.88;1.00;;;;;;;25.40;47.54;99288.00;4898426;29;20092;-76
2023/07/27 05:02:13;;;;;;;1.48;0.95;;;;;;;25.38;47.96;99285.50;4898091;29;20056;-78
2023/07/27 05:04:39;;;;;;;2.28;0.93;;;;;;;25.38;47.71;99289.97;4896609;29;20032;-76
2023/07/27 05:07:04;;;;;;;2.40;1.10;;;;;;;25.33;47.95;99293.03;4898106;29;20111;-77
2023/07/27 05:09:30;;;;;;;2.45;1.08;;;;;;;25.34;47.50;99295.56;4896618;29;20068;-77
2023/07/27 05:11:55;;;;;;;2.42;1.40;;;;;;;25.37;47.64;99299.78;4896793;29;20032;-76
2023/07/27 05:14:21;;;;;;;2.35;1.00;;;;;;;25.37;47.84;99299.78;4895911;29;20029;-77
2023/07/27 05:16:46;;;;;;;1.60;1.08;;;;;;;25.38;47.93;99295.31;4897844;29;20039;-77
2023/07/27 05:19:11;;;;;;;1.50;1.00;;;;;;;25.42;47.78;99292.25;4897584;29;20067;-77
2023/07/27 05:21:37;;;;;;;1.63;1.10;;;;;;;25.39;47.64;99291.66;4897668;29;20056;-77
2023/07/27 05:24:02;;;;;;;1.88;1.00;;;;;;;25.39;48.01;99292.53;4897974;29;20031;-77
2023/07/27 05:26:28;;;;;;;1.33;1.00;;;;;;;25.43;47.83;99293.94;4897747;29;20021;-77
2023/07/27 05:28:53;;;;;;;1.75;1.00;;;;;;;25.41;47.85;99289.72;4897676;29;20024;-77
2023/07/27 05:31:19;;;;;;;1.70;1.02;;;;;;;25.39;47.93;99291.66;4896522;29;20069;-76
2023/07/27 05:33:44;;;;;;;2.00;1.40;;;;;;;25.39;48.26;99287.19;4889853;29;20021;-77
2023/07/27 05:36:09;;;;;;;1.23;1.02;;;;;;;25.41;47.92;99287.91;4884389;29;20396;-76
2023/07/27 05:38:35;;;;;;;1.80;1.20;;;;;;;25.43;48.31;99287.78;4897598;29;20386;-77
2023/07/27 05:41:01;;;;;;;1.77;1.00;;;;;;;25.40;48.26;99288.88;4897194;29;20021;-77
2023/07/27 05:43:27;;;;;;;2.58;1.25;;;;;;;25.40;48.15;99283.53;4896886;29;20510;-77
2023/07/27 05:45:52;;;;;;;2.88;1.35;;;;;;;25.41;48.17;99279.03;4883898;29;20029;-77
2023/07/27 05:48:18;;;;;;;1.73;1.10;;;;;;;25.42;48.24;99281.56;4892956;29;20028;-77
2023/07/27 05:50:43;;;;;;;1.90;1.30;;;;;;;25.43;48.15;99283.25;4895543;29;20020;-76
2023/07/27 05:53:09;;;;;;;2.28;1.27;;;;;;;25.41;48.34;99284.38;4883401;29;20033;-76
2023/07/27 05:55:34;;;;;;;1.55;1.10;;;;;;;25.43;48.15;99282.44;4890577;29;20028;-77
2023/07/27 05:57:59;;;;;;;2.25;1.33;;;;;;;25.41;48.55;99279.03;4897277;29;20035;-76
2023/07/27 06:00:26;;;;;;;3.25;1.50;;;;;;;25.40;48.37;99288.88;4883988;29;20048;-77
2023/07/27 06:02:51;;;;;;;1.20;0.80;;;;;;;25.43;48.30;99288.59;4896855;29;20168;-76
2023/07/27 06:05:17;;;;;;;1.73;1.15;;;;;;;25.43;48.27;99285.09;4897344;29;20505;-76
2023/07/27 06:07:42;;;;;;;2.55;1.40;;;;;;;25.42;48.11;99286.91;4897118;29;20040;-75
2023/07/27 06:10:08;;;;;;;3.80;1.30;;;;;;;25.41;48.40;99285.22;4897074;29;20051;-76
2023/07/27 06:12:34;;;;;;;2.00;1.05;;;;;;;25.44;47.98;99295.66;4897040;29;20020;-76
2023/07/27 06:14:59;;;;;;;2.22;1.17;;;;;;;25.44;48.16;99284.97;4892392;29;20025;-77
2023/07/27 06:17:27;;;;;;;1.92;1.20;;;;;;;25.45;48.28;99280.47;4896938;29;20036;-76
2023/07/27 06:19:53;;;;;;;1.70;1.10;;;;;;;25.48;48.09;99281.06;4896969;29;20374;-76
2023/07/27 06:22:18;;;;;;;1.55;0.90;;;;;;;25.48;47.96;99278.38;4895728;29;20036;-76
2023/07/27 06:24:44;;;;;;;2.08;1.30;;;;;;;25.50;47.92;99277.41;4891354;29;20033;-76
2023/07/27 06:27:09;;;;;;;2.00;1.00;;;;;;;25.51;48.10;99279.13;4886675;29;20029;-77
2023/07/27 06:29:35;;;;;;;2.20;1.13;;;;;;;25.52;47.99;99280.81;4896950;29;20110;-77
2023/07/27 06:32:00;;;;;;;2.22;1.30;;;;;;;25.54;47.90;99282.41;4896324;29;20029;-77
2023/07/27 06:34:26;;;;;;;2.08;1.20;;;;;;;25.56;48.19;99284.97;4896871;29;20067;-76
2023/07/27 06:36:51;;;;;;;1.50;1.10;;;;;;;25.55;48.10;99291.25;4896697;29;20088;-77
2023/07/27 06:39:17;;;;;;;2.60;1.30;;;;;;;25.54;48.21;99292.25;4896718;29;20131;-77
2023/07/27 06:41:42;;;;;;;2.97;1.40;;;;;;;25.55;48.16;99301.94;4890152;29;20040;-76
2023/07/27 06:44:08;;;;;;;2.00;1.20;;;;;;;25.54;48.39;99298.44;4884778;29;20024;-75
2023/07/27 06:46:34;;;;;;;2.20;1.25;;;;;;;25.56;48.09;99293.00;4896606;29;20029;-76
2023/07/27 06:48:59;;;;;;;2.35;1.42;;;;;;;25.54;48.10;99306.47;4896621;29;20039;-76
2023/07/27 06:51:25;;;;;;;3.08;1.30;;;;;;;25.56;48.16;99293.81;4896651;29;20028;-77
2023/07/27 06:53:51;;;;;;;2.17;1.00;;;;;;;25.57;48.28;99294.69;4889202;29;20049;-77
2023/07/27 06:56:17;;;;;;;2.35;1.20;;;;;;;25.57;48.53;99294.69;4893930;29;20136;-76
2023/07/27 06:58:42;;;;;;;2.33;1.27;;;;;;;25.57;48.16;99286.66;4894634;29;20032;-76
2023/07/27 07:01:10;;;;;;;1.98;1.20;;;;;;;25.58;48.34;99288.34;4887994;29;20032;-77
2023/07/27 07:03:35;;;;;;;3.05;1.17;;;;;;;25.60;48.38;99289.06;4900361;29;20036;-76
2023/07/27 07:06:01;;;;;;;2.13;1.20;;;;;;;25.62;47.76;99288.94;4900224;29;20127;-76
2023/07/27 07:08:26;;;;;;;2.88;1.20;;;;;;;25.59;48.30;99287.38;4900111;29;20071;-76
2023/07/27 07:10:52;;;;;;;3.30;1.27;;;;;;;25.62;47.99;99289.81;4900083;29;20029;-76
2023/07/27 07:13:17;;;;;;;1.48;0.90;;;;;;;25.62;48.23;99284.47;4900114;29;20083;-77
2023/07/27 07:15:45;;;;;;;2.33;1.23;;;;;;;25.64;48.15;99285.16;4899598;29;20474;-76
2023/07/27 07:18:10;;;;;;;1.30;1.10;;;;;;;25.64;48.19;99284.31;4900160;29;20028;-76
2023/07/27 07:20:36;;;;;;;2.78;1.50;;;;;;;25.65;47.86;99280.69;4899866;29;20501;-76
2023/07/27 07:23:01;;;;;;;1.83;1.15;;;;;;;25.65;48.11;99281.50;4895280;29;20029;-77
2023/07/27 07:25:26;;;;;;;1.42;1.10;;;;;;;25.66;48.02;99285.03;4889867;29;20029;-77
2023/07/27 07:27:52;;;;;;;1.90;1.13;;;;;;;25.65;47.91;99292.19;4899795;29;20017;-77
2023/07/27 07:30:17;;;;;;;2.30;1.08;;;;;;;25.65;48.03;99278.84;4899269;29;20036;-76
2023/07/27 07:32:43;;;;;;;1.95;1.17;;;;;;;25.65;47.96;99278.00;4898835;29;20034;-76
2023/07/27 07:35:08;;;;;;;1.55;1.00;;;;;;;25.67;48.27;99274.19;4899662;29;20469;-77
2023/07/27 07:37:33;;;;;;;1.98;0.93;;;;;;;25.67;48.17;99279.56;4899618;29;20024;-77
2023/07/27 07:39:59;;;;;;;3.35;1.25;;;;;;;25.69;48.00;99280.28;4898176;29;20021;-76
2023/07/27 07:42:24;;;;;;;2.63;1.13;;;;;;;25.68;47.79;99270.59;4899408;29;20060;-77
2023/07/27 07:44:50;;;;;;;2.25;1.20;;;;;;;25.71;48.00;99267.63;4899036;29;20020;-77
2023/07/27 07:47:15;;;;;;;2.10;1.02;;;;;;;25.71;48.17;99270.31;4899513;29;20420;-76
2023/07/27 07:49:41;;;;;;;1.40;1.00;;;;;;;25.74;47.79;99269.19;4899181;29;20028;-76
2023/07/27 07:52:06;;;;;;;1.88;1.10;;;;;;;25.73;47.85;99257.66;4899307;29;20042;-77
2023/07/27 07:54:35;;;;;;;1.65;1.13;;;;;;;25.75;48.12;99260.19;4894330;29;20041;-77
2023/07/27 07:57:00;;;;;;;1.67;1.08;;;;;;;25.76;48.05;99261.88;4897043;29;20071;-75
2023/07/27 07:59:26;;;;;;;2.83;1.55;;;;;;;25.76;47.75;99255.72;4898953;29;20450;-77
2023/07/27 08:01:51;;;;;;;2.65;1.23;;;;;;;25.77;47.80;99257.41;4899032;29;20119;-77
2023/07/27 08:04:17;;;;;;;1.77;1.20;;;;;;;25.78;48.04;99259.09;4899084;29;20123;-77
2023/07/27 08:06:43;;;;;;;2.22;1.10;;;;;;;25.80;48.25;99262.50;4897991;29;20096;-77
2023/07/27 08:09:09;;;;;;;2.17;1.23;;;;;;;25.78;48.32;99253.75;4889947;29;20493;-77
2023/07/27 08:11:35;;;;;;;1.52;1.00;;;;;;;25.81;47.89;99258.84;4899016;29;20036;-77
2023/07/27 08:14:02;;;;;;;1.67;1.00;;;;;;;25.81;47.87;99259.69;4897421;29;20119;-75
2023/07/27 08:16:28;;;;;;;2.15;1.20;;;;;;;25.82;47.95;99255.19;4898744;29;20485;-77
2023/07/27 08:18:54;;;;;;;1.92;1.08;;;;;;;25.84;48.11;99253.22;4898835;29;20028;-76
2023/07/27 08:21:19;;;;;;;1.52;0.95;;;;;;;25.84;47.82;99242.53;4898735;29;20024;-77
2023/07/27 08:23:44;;;;;;;2.10;1.10;;;;;;;25.86;47.71;99248.63;4898937;29;20061;-77
2023/07/27 08:26:10;;;;;;;2.80;1.33;;;;;;;25.87;48.03;99239.63;4896523;29;20021;-77
2023/07/27 08:28:35;;;;;;;2.38;1.42;;;;;;;25.89;47.66;99251.00;4891477;29;20063;-78
2023/07/27 08:31:03;;;;;;;1.80;1.00;;;;;;;25.90;47.89;99242.00;4898831;29;20029;-76
2023/07/27 08:33:29;;;;;;;1.40;0.90;;;;;;;25.91;47.69;99238.34;4898368;29;20276;-77
2023/07/27 08:35:54;;;;;;;2.67;1.27;;;;;;;25.92;47.69;99237.41;4897936;29;20462;-77
2023/07/27 08:38:19;;;;;;;2.28;1.10;;;;;;;25.96;47.94;99235.31;4898707;29;20061;-77
2023/07/27 08:40:55;;;;;;;2.67;1.20;;;;;;;25.96;47.79;99225.44;4897242;29;20025;-78
2023/07/27 08:43:21;;;;;;;2.90;1.40;;;;;;;25.96;47.86;99220.09;4890778;29;20117;-77
2023/07/27 08:45:47;;;;;;;1.40;0.98;;;;;;;25.98;47.56;99217.31;4898373;29;20033;-78
2023/07/27 08:48:14;;;;;;;1.83;1.20;;;;;;;26.01;47.72;99217.06;4898314;29;20041;-77
2023/07/27 08:50:44;;;;;;;1.52;1.10;;;;;;;26.01;47.35;99201.84;4898467;29;20028;-77
2023/07/27 08:53:11;;;;;;;1.77;1.00;;;;;;;26.05;47.31;99201.59;4898445;29;20107;-78
2023/07/27 08:55:39;;;;;;;2.92;1.63;;;;;;;26.07;47.55;99202.28;4898213;29;20076;-76
2023/07/27 08:58:04;;;;;;;1.30;0.98;;;;;;;26.07;47.44;99199.63;4896225;29;20451;-77
2023/07/27 09:00:31;;;;;;;1.42;1.10;;;;;;;26.09;47.52;99203.00;4897919;29;20032;-75
2023/07/27 09:02:58;;;;;;;3.10;1.35;;;;;;;26.11;47.47;99201.06;4897729;29;20076;-77
2023/07/27 09:05:43;;;;;;;2.33;1.25;;;;;;;26.12;47.30;99194.72;4897805;29;20107;-78
2023/07/27 09:08:11;;;;;;;2.40;1.30;;;;;;;26.14;47.75;99195.41;4893723;29;20036;-78
2023/07/27 09:10:38;;;;;;;2.45;1.48;;;;;;;26.15;47.75;99191.78;4897497;29;20048;-77
2023/07/27 09:13:04;;;;;;;1.73;1.08;;;;;;;26.17;47.64;99191.63;4896385;29;20033;-77
2023/07/27 09:15:30;;;;;;;1.95;1.30;;;;;;;26.17;47.51;99184.47;4897737;29;20035;-75
2023/07/27 09:17:58;;;;;;;2.22;1.42;;;;;;;26.19;47.37;99193.19;4897555;29;20107;-77
2023/07/27 09:20:25;;;;;;;1.60;1.15;;;;;;;26.20;47.33;99194.88;4897349;29;20438;-77
2023/07/27 09:22:50;;;;;;;1.75;1.20;;;;;;;26.21;47.55;99185.91;4897085;29;20033;-77
2023/07/27 09:25:21;;;;;;;1.67;1.20;;;;;;;26.22;47.65;99187.59;4897260;29;20080;-77
2023/07/27 09:27:46;;;;;;;1.83;1.10;;;;;;;26.24;47.45;99180.31;4897512;29;20026;-78
2023/07/27 09:30:12;;;;;;;3.00;1.38;;;;;;;26.25;47.33;99173.97;4897477;29;20043;-78
2023/07/27 09:32:38;;;;;;;1.90;1.30;;;;;;;26.27;47.62;99174.69;4897405;29;20033;-78
2023/07/27 09:35:04;;;;;;;3.03;1.33;;;;;;;26.29;47.58;99181.72;4897330;29;20039;-77
2023/07/27 09:37:30;;;;;;;2.22;1.35;;;;;;;26.30;47.56;99172.72;4897142;29;20020;-76
2023/07/27 09:40:09;;;;;;;2.20;1.30;;;;;;;26.33;47.68;99177.81;4896747;29;20379;-78
2023/07/27 09:42:35;;;;;;;1.88;1.30;;;;;;;26.33;47.66;99180.50;4896978;29;20561;-77
2023/07/27 09:45:00;;;;;;;1.98;1.30;;;;;;;26.36;47.32;99172.19;4897074;29;20021;-78
2023/07/27 09:47:31;;;;;;;2.38;1.38;;;;;;;26.36;47.57;99174.84;4895802;29;20025;-77
2023/07/27 09:49:59;;;;;;;1.75;1.10;;;;;;;26.39;47.61;99182.63;4897169;29;20025;-77
2023/07/27 09:52:25;;;;;;;1.80;1.10;;;;;;;26.41;47.65;99175.28;4897024;29;20024;-76
2023/07/27 09:54:53;;;;;;;2.10;1.30;;;;;;;26.42;47.67;99182.31;4895427;29;20020;-78
2023/07/27 09:57:20;;;;;;;2.05;1.38;;;;;;;26.42;47.74;99174.31;4896820;29;20020;-78
2023/07/27 09:59:46;;;;;;;2.03;1.27;;;;;;;26.45;47.60;99179.41;4896132;29;20505;-77
2023/07/27 10:02:13;;;;;;;2.00;1.30;;;;;;;26.46;47.60;99173.06;4894031;29;20028;-77
2023/07/27 10:04:38;;;;;;;1.98;1.27;;;;;;;26.46;47.60;99173.06;4892927;29;20028;-77
2023/07/27 10:07:05;;;;;;;2.53;1.38;;;;;;;26.48;47.44;99167.59;4896784;29;20020;-77
2023/07/27 10:09:31;;;;;;;1.83;1.20;;;;;;;26.49;47.42;99162.06;4896276;29;20040;-77
2023/07/27 10:11:59;;;;;;;2.03;1.33;;;;;;;26.51;47.50;99160.13;4896916;29;20024;-78
2023/07/27 10:14:26;;;;;;;1.50;1.10;;;;;;;26.52;47.33;99151.09;4896809;29;20107;-77
2023/07/27 10:17:03;;;;;;;1.73;1.20;;;;;;;26.54;47.79;99149.13;4896684;29;20549;-77
2023/07/27 10:20:18;;;;;;;1.55;1.02;;;;;;;26.57;47.89;99141.84;4896613;29;20029;-77
2023/07/27 10:22:43;;;;;;;2.40;1.30;;;;;;;26.58;47.64;99132.81;4892777;29;20063;-78
2023/07/27 10:25:09;;;;;;;1.55;0.95;;;;;;;26.59;47.85;99134.50;4896403;29;20489;-77
2023/07/27 10:27:53;;;;;;;1.98;1.17;;;;;;;26.61;47.88;99136.06;4896660;29;20497;-77
2023/07/27 10:30:19;;;;;;;2.30;1.38;;;;;;;26.63;47.54;99130.56;4897259;29;20138;-77
2023/07/27 10:33:08;;;;;;;2.13;1.30;;;;;;;26.65;47.92;99125.91;4902832;29;20044;-77
2023/07/27 10:36:01;;;;;;;1.98;1.30;;;;;;;26.67;48.00;99127.47;4901546;29;20054;-77
2023/07/27 10:38:27;;;;;;;2.10;1.23;;;;;;;26.68;47.78;99126.47;4894870;29;20112;-77
2023/07/27 10:40:52;;;;;;;1.65;1.10;;;;;;;26.70;47.71;99107.63;4902567;29;20100;-77
2023/07/27 10:43:18;;;;;;;1.70;1.02;;;;;;;26.70;47.45;99104.94;4902793;29;20039;-77
2023/07/27 10:45:54;;;;;;;1.45;0.90;;;;;;;26.73;47.99;99099.28;4903136;29;20477;-78
2023/07/27 10:48:19;;;;;;;1.70;1.10;;;;;;;26.75;47.61;99101.84;4900222;29;20021;-78
2023/07/27 10:50:44;;;;;;;1.80;1.10;;;;;;;26.75;47.72;99094.66;4897583;29;20056;-77
2023/07/27 10:53:10;;;;;;;2.92;1.98;;;;;;;26.78;47.79;99091.69;4902486;29;20379;-76
2023/07/27 10:55:41;;;;;;;2.42;1.27;;;;;;;26.77;47.85;99095.34;4902739;29;20029;-78
2023/07/27 10:58:08;;;;;;;1.60;1.00;;;;;;;26.79;47.79;99088.03;4902945;29;20564;-77
2023/07/27 11:00:37;;;;;;;1.77;1.20;;;;;;;26.81;47.90;99091.41;4901221;29;20075;-77
2023/07/27 11:03:03;;;;;;;1.90;1.35;;;;;;;26.80;47.69;99087.06;4902441;29;20501;-77
2023/07/27 11:05:28;;;;;;;1.55;1.00;;;;;;;26.83;47.67;99082.41;4902495;29;20020;-77
2023/07/27 11:08:01;;;;;;;1.30;0.88;;;;;;;26.84;47.96;99078.72;4902431;29;20016;-77
2023/07/27 11:10:30;;;;;;;1.73;0.95;;;;;;;26.86;48.11;99079.41;4898359;29;20049;-78
2023/07/27 11:12:57;;;;;;;1.75;1.20;;;;;;;26.86;47.80;99077.59;4901182;29;20020;-77
2023/07/27 11:15:24;;;;;;;1.98;1.05;;;;;;;26.89;47.60;99076.47;4902400;29;20540;-77
2023/07/27 11:17:51;;;;;;;2.42;1.00;;;;;;;26.89;48.13;99071.13;4902602;29;20486;-77
2023/07/27 11:20:20;;;;;;;1.70;0.90;;;;;;;26.91;47.95;99079.84;4902410;29;20498;-77
2023/07/27 11:22:49;;;;;;;1.45;0.93;;;;;;;26.93;47.66;99078.75;4902308;29;20035;-77
2023/07/27 11:25:15;;;;;;;2.00;1.02;;;;;;;26.94;47.83;99068.91;4902352;29;20481;-77
2023/07/27 11:27:41;;;;;;;1.50;1.25;;;;;;;26.95;47.77;99065.22;4902367;29;20099;-77
2023/07/27 11:30:12;;;;;;;1.55;1.00;;;;;;;26.96;47.83;99069.59;4902024;29;20033;-77
2023/07/27 11:32:37;;;;;;;2.00;1.02;;;;;;;26.97;47.79;99062.41;4901042;29;20033;-76
2023/07/27 11:35:03;;;;;;;1.58;0.80;;;;;;;27.00;47.85;99056.75;4902410;29;20036;-77